sensor_id;sensor_type;location;lat;lon;timestamp;pressure;altitude;pressure_sealevel;temperature;humidity
11198;BME280;5655;48.744;9.162;2022-08-19T00:00:43;95837.19;;;22.69;100.00
11198;BME280;5655;48.744;9.162;2022-08-19T00:03:09;95837.50;;;22.80;100.00
11198;BME280;5655;48.744;9.162;2022-08-19T00:05:35;95843.81;;;22.59;100.00
11198;BME280;5655;48.744;9.162;2022-08-19T00:08:01;95836.44;;;22.78;100.00
11198;BME280;5655;48.744;9.162;2022-08-19T00:10:26;95837.28;;;22.66;100.00
11198;BME280;5655;48.744;9.162;2022-08-19T00:12:52;95847.47;;;22.83;100.00
11198;BME280;5655;48.744;9.162;2022-08-19T00:15:19;95854.00;;;22.77;100.00
11198;BME280;5655;48.744;9.162;2022-08-19T00:17:45;95851.72;;;22.75;100.00
11198;BME280;5655;48.744;9.162;2022-08-19T00:20:14;95842.19;;;22.71;100.00
11198;BME280;5655;48.744;9.162;2022-08-19T00:22:43;95849.91;;;22.72;100.00
11198;BME280;5655;48.744;9.162;2022-08-19T00:25:09;95851.06;;;22.53;100.00
11198;BME280;5655;48.744;9.162;2022-08-19T00:27:35;95848.81;;;22.42;100.00
11198;BME280;5655;48.744;9.162;2022-08-19T00:30:00;95850.31;;;22.52;100.00
11198;BME280;5655;48.744;9.162;2022-08-19T00:32:28;95841.84;;;22.50;100.00
11198;BME280;5655;48.744;9.162;2022-08-19T00:34:53;95838.38;;;22.59;100.00
11198;BME280;5655;48.744;9.162;2022-08-19T00:37:20;95827.75;;;22.52;100.00
11198;BME280;5655;48.744;9.162;2022-08-19T00:39:48;95825.63;;;22.38;100.00
11198;BME280;5655;48.744;9.162;2022-08-19T00:42:13;95821.06;;;22.62;100.00
11198;BME280;5655;48.744;9.162;2022-08-19T00:44:41;95820.78;;;22.51;100.00
11198;BME280;5655;48.744;9.162;2022-08-19T00:47:06;95825.03;;;22.43;100.00
11198;BME280;5655;48.744;9.162;2022-08-19T00:49:37;95827.00;;;22.70;100.00
11198;BME280;5655;48.744;9.162;2022-08-19T00:52:12;95828.69;;;22.85;100.00
11198;BME280;5655;48.744;9.162;2022-08-19T00:54:41;95827.50;;;22.77;100.00
11198;BME280;5655;48.744;9.162;2022-08-19T00:57:10;95830.50;;;22.79;100.00
11198;BME280;5655;48.744;9.162;2022-08-19T00:59:39;95837.47;;;22.71;100.00
11198;BME280;5655;48.744;9.162;2022-08-19T01:02:05;95845.19;;;22.54;100.00
11198;BME280;5655;48.744;9.162;2022-08-19T01:04:31;95837.78;;;22.73;100.00
11198;BME280;5655;48.744;9.162;2022-08-19T01:06:57;95835.97;;;22.70;100.00
11198;BME280;5655;48.744;9.162;2022-08-19T01:09:23;95838.41;;;22.77;100.00
11198;BME280;5655;48.744;9.162;2022-08-19T01:11:49;95846.44;;;22.72;100.00
11198;BME280;5655;48.744;9.162;2022-08-19T01:14:15;95839.75;;;22.73;100.00
11198;BME280;5655;48.744;9.162;2022-08-19T01:16:43;95834.28;;;22.63;100.00
11198;BME280;5655;48.744;9.162;2022-08-19T01:19:25;95833.09;;;22.74;100.00
11198;BME280;5655;48.744;9.162;2022-08-19T01:21:57;95826.88;;;22.73;100.00
11198;BME280;5655;48.744;9.162;2022-08-19T01:24:25;95834.72;;;22.53;100.00
11198;BME280;5655;48.744;9.162;2022-08-19T01:26:51;95837.19;;;22.69;100.00
11198;BME280;5655;48.744;9.162;2022-08-19T01:29:16;95833.50;;;22.63;100.00
11198;BME280;5655;48.744;9.162;2022-08-19T01:31:42;95835.00;;;22.46;100.00
11198;BME280;5655;48.744;9.162;2022-08-19T01:34:07;95823.16;;;22.31;100.00
11198;BME280;5655;48.744;9.162;2022-08-19T01:36:40;95832.13;;;22.49;100.00
11198;BME280;5655;48.744;9.162;2022-08-19T01:39:11;95826.88;;;22.73;100.00
11198;BME280;5655;48.744;9.162;2022-08-19T01:41:37;95824.88;;;22.46;100.00
11198;BME280;5655;48.744;9.162;2022-08-19T01:44:03;95832.91;;;22.50;100.00
11198;BME280;5655;48.744;9.162;2022-08-19T01:46:30;95821.38;;;22.55;100.00
11198;BME280;5655;48.744;9.162;2022-08-19T01:48:55;95831.34;;;22.40;100.00
11198;BME280;5655;48.744;9.162;2022-08-19T01:51:21;95821.97;;;22.41;100.00
11198;BME280;5655;48.744;9.162;2022-08-19T01:53:50;95828.38;;;22.56;100.00
11198;BME280;5655;48.744;9.162;2022-08-19T01:56:17;95825.31;;;22.54;100.00
11198;BME280;5655;48.744;9.162;2022-08-19T01:58:58;95833.81;;;22.56;100.00
11198;BME280;5655;48.744;9.162;2022-08-19T02:01:25;95837.13;;;22.42;100.00
11198;BME280;5655;48.744;9.162;2022-08-19T02:03:50;95835.94;;;22.43;100.00
11198;BME280;5655;48.744;9.162;2022-08-19T02:06:17;95846.63;;;22.19;100.00
11198;BME280;5655;48.744;9.162;2022-08-19T02:08:42;95844.97;;;22.22;100.00
11198;BME280;5655;48.744;9.162;2022-08-19T02:11:21;95839.25;;;22.38;100.00
11198;BME280;5655;48.744;9.162;2022-08-19T02:13:47;95832.81;;;22.04;100.00
11198;BME280;5655;48.744;9.162;2022-08-19T02:16:14;95837.34;;;21.98;100.00
11198;BME280;5655;48.744;9.162;2022-08-19T02:18:40;95828.44;;;22.16;100.00
11198;BME280;5655;48.744;9.162;2022-08-19T02:21:05;95835.69;;;22.10;100.00
11198;BME280;5655;48.744;9.162;2022-08-19T02:23:31;95836.50;;;22.29;100.00
11198;BME280;5655;48.744;9.162;2022-08-19T02:25:56;95836.47;;;22.10;100.00
11198;BME280;5655;48.744;9.162;2022-08-19T02:28:22;95844.66;;;22.20;100.00
11198;BME280;5655;48.744;9.162;2022-08-19T02:30:47;95843.13;;;22.09;100.00
11198;BME280;5655;48.744;9.162;2022-08-19T02:33:13;95854.03;;;22.18;100.00
11198;BME280;5655;48.744;9.162;2022-08-19T02:35:44;95850.13;;;22.20;100.00
11198;BME280;5655;48.744;9.162;2022-08-19T02:38:09;95850.19;;;21.98;100.00
11198;BME280;5655;48.744;9.162;2022-08-19T02:40:52;95844.69;;;22.29;100.00
11198;BME280;5655;48.744;9.162;2022-08-19T02:43:18;95846.19;;;22.21;100.00
11198;BME280;5655;48.744;9.162;2022-08-19T02:45:48;95848.28;;;22.16;100.00
11198;BME280;5655;48.744;9.162;2022-08-19T02:48:16;95845.53;;;22.07;100.00
11198;BME280;5655;48.744;9.162;2022-08-19T02:50:42;95836.81;;;22.22;100.00
11198;BME280;5655;48.744;9.162;2022-08-19T02:53:08;95830.75;;;22.17;100.00
11198;BME280;5655;48.744;9.162;2022-08-19T02:55:34;95830.44;;;22.25;100.00
11198;BME280;5655;48.744;9.162;2022-08-19T02:57:59;95829.38;;;22.13;100.00
11198;BME280;5655;48.744;9.162;2022-08-19T03:00:25;95842.44;;;21.87;100.00
11198;BME280;5655;48.744;9.162;2022-08-19T03:02:51;95831.56;;;21.96;100.00
11198;BME280;5655;48.744;9.162;2022-08-19T03:05:17;95835.25;;;22.11;100.00
11198;BME280;5655;48.744;9.162;2022-08-19T03:07:42;95834.28;;;21.96;100.00
11198;BME280;5655;48.744;9.162;2022-08-19T03:10:08;95841.41;;;21.94;100.00
11198;BME280;5655;48.744;9.162;2022-08-19T03:12:37;95866.88;;;21.69;100.00
11198;BME280;5655;48.744;9.162;2022-08-19T03:15:06;95867.56;;;21.91;100.00
11198;BME280;5655;48.744;9.162;2022-08-19T03:17:32;95864.91;;;22.00;100.00
11198;BME280;5655;48.744;9.162;2022-08-19T03:19:58;95874.81;;;21.85;100.00
11198;BME280;5655;48.744;9.162;2022-08-19T03:22:23;95872.53;;;21.84;100.00
11198;BME280;5655;48.744;9.162;2022-08-19T03:24:50;95871.81;;;21.92;100.00
11198;BME280;5655;48.744;9.162;2022-08-19T03:27:15;95864.16;;;22.00;100.00
11198;BME280;5655;48.744;9.162;2022-08-19T03:29:42;95855.84;;;22.03;100.00
11198;BME280;5655;48.744;9.162;2022-08-19T03:32:07;95855.25;;;22.08;100.00
11198;BME280;5655;48.744;9.162;2022-08-19T03:34:33;95862.53;;;22.21;100.00
11198;BME280;5655;48.744;9.162;2022-08-19T03:37:07;95852.56;;;22.36;100.00
11198;BME280;5655;48.744;9.162;2022-08-19T03:39:33;95858.00;;;22.17;100.00
11198;BME280;5655;48.744;9.162;2022-08-19T03:41:59;95862.81;;;22.13;100.00
11198;BME280;5655;48.744;9.162;2022-08-19T03:44:28;95870.47;;;21.97;100.00
11198;BME280;5655;48.744;9.162;2022-08-19T03:46:56;95853.28;;;22.18;100.00
11198;BME280;5655;48.744;9.162;2022-08-19T03:49:25;95854.88;;;21.97;100.00
11198;BME280;5655;48.744;9.162;2022-08-19T03:51:52;95866.44;;;21.80;100.00
11198;BME280;5655;48.744;9.162;2022-08-19T03:54:20;95861.38;;;21.91;100.00
11198;BME280;5655;48.744;9.162;2022-08-19T03:56:47;95875.31;;;21.93;100.00
11198;BME280;5655;48.744;9.162;2022-08-19T03:59:22;95862.47;;;22.02;100.00
11198;BME280;5655;48.744;9.162;2022-08-19T04:01:51;95863.38;;;21.99;100.00
11198;BME280;5655;48.744;9.162;2022-08-19T04:04:16;95874.19;;;21.81;100.00
11198;BME280;5655;48.744;9.162;2022-08-19T04:06:42;95878.53;;;21.69;100.00
11198;BME280;5655;48.744;9.162;2022-08-19T04:09:09;95880.63;;;21.65;100.00
11198;BME280;5655;48.744;9.162;2022-08-19T04:11:50;95881.25;;;21.69;100.00
11198;BME280;5655;48.744;9.162;2022-08-19T04:14:20;95885.09;;;21.81;100.00
11198;BME280;5655;48.744;9.162;2022-08-19T04:16:48;95874.91;;;21.72;100.00
11198;BME280;5655;48.744;9.162;2022-08-19T04:19:15;95884.38;;;21.59;100.00
11198;BME280;5655;48.744;9.162;2022-08-19T04:21:44;95877.75;;;21.69;100.00
11198;BME280;5655;48.744;9.162;2022-08-19T04:24:11;95881.59;;;21.50;100.00
11198;BME280;5655;48.744;9.162;2022-08-19T04:26:37;95882.88;;;21.36;100.00
11198;BME280;5655;48.744;9.162;2022-08-19T04:29:07;95888.00;;;21.56;100.00
11198;BME280;5655;48.744;9.162;2022-08-19T04:31:33;95877.94;;;21.44;100.00
11198;BME280;5655;48.744;9.162;2022-08-19T04:34:05;95881.22;;;21.39;100.00
11198;BME280;5655;48.744;9.162;2022-08-19T04:36:33;95869.41;;;21.63;100.00
11198;BME280;5655;48.744;9.162;2022-08-19T04:39:05;95869.88;;;21.71;100.00
11198;BME280;5655;48.744;9.162;2022-08-19T04:41:31;95880.66;;;21.44;100.00
11198;BME280;5655;48.744;9.162;2022-08-19T04:44:15;95874.63;;;21.27;100.00
11198;BME280;5655;48.744;9.162;2022-08-19T04:46:45;95889.97;;;21.34;100.00
11198;BME280;5655;48.744;9.162;2022-08-19T04:49:10;95895.69;;;21.26;100.00
11198;BME280;5655;48.744;9.162;2022-08-19T04:51:36;95893.03;;;21.36;100.00
11198;BME280;5655;48.744;9.162;2022-08-19T04:54:04;95884.25;;;21.41;100.00
11198;BME280;5655;48.744;9.162;2022-08-19T04:56:29;95886.63;;;21.30;100.00
11198;BME280;5655;48.744;9.162;2022-08-19T04:58:56;95893.53;;;21.21;100.00
11198;BME280;5655;48.744;9.162;2022-08-19T05:01:24;95891.22;;;21.42;100.00
11198;BME280;5655;48.744;9.162;2022-08-19T05:03:50;95892.13;;;21.17;100.00
11198;BME280;5655;48.744;9.162;2022-08-19T05:06:17;95891.66;;;21.40;100.00
11198;BME280;5655;48.744;9.162;2022-08-19T05:08:43;95895.16;;;21.19;100.00
11198;BME280;5655;48.744;9.162;2022-08-19T05:11:13;95904.84;;;21.42;100.00
11198;BME280;5655;48.744;9.162;2022-08-19T05:13:40;95907.06;;;21.34;100.00
11198;BME280;5655;48.744;9.162;2022-08-19T05:16:06;95910.34;;;21.29;100.00
11198;BME280;5655;48.744;9.162;2022-08-19T05:18:31;95919.53;;;21.44;100.00
11198;BME280;5655;48.744;9.162;2022-08-19T05:21:17;95935.69;;;21.39;100.00
11198;BME280;5655;48.744;9.162;2022-08-19T05:24:03;95936.69;;;21.54;100.00
11198;BME280;5655;48.744;9.162;2022-08-19T05:26:32;95955.19;;;21.37;100.00
11198;BME280;5655;48.744;9.162;2022-08-19T05:28:58;95966.13;;;21.24;100.00
11198;BME280;5655;48.744;9.162;2022-08-19T05:31:23;95967.88;;;21.18;100.00
11198;BME280;5655;48.744;9.162;2022-08-19T05:33:48;95974.50;;;21.52;100.00
11198;BME280;5655;48.744;9.162;2022-08-19T05:36:14;95973.09;;;21.69;100.00
11198;BME280;5655;48.744;9.162;2022-08-19T05:38:40;95983.69;;;21.67;100.00
11198;BME280;5655;48.744;9.162;2022-08-19T05:41:09;95982.16;;;21.66;100.00
11198;BME280;5655;48.744;9.162;2022-08-19T05:43:35;95985.38;;;21.30;100.00
11198;BME280;5655;48.744;9.162;2022-08-19T05:46:01;95979.63;;;21.50;100.00
11198;BME280;5655;48.744;9.162;2022-08-19T05:48:26;95971.53;;;21.59;100.00
11198;BME280;5655;48.744;9.162;2022-08-19T05:50:52;95976.34;;;21.55;100.00
11198;BME280;5655;48.744;9.162;2022-08-19T05:53:18;95974.94;;;21.72;100.00
11198;BME280;5655;48.744;9.162;2022-08-19T05:55:43;95964.31;;;21.65;100.00
11198;BME280;5655;48.744;9.162;2022-08-19T05:58:09;95977.31;;;21.61;100.00
11198;BME280;5655;48.744;9.162;2022-08-19T06:00:36;95978.38;;;21.63;100.00
11198;BME280;5655;48.744;9.162;2022-08-19T06:03:02;95973.41;;;21.71;100.00
11198;BME280;5655;48.744;9.162;2022-08-19T06:05:31;95975.38;;;21.49;100.00
11198;BME280;5655;48.744;9.162;2022-08-19T06:07:57;95977.59;;;21.63;100.00
11198;BME280;5655;48.744;9.162;2022-08-19T06:10:24;95981.91;;;21.51;100.00
11198;BME280;5655;48.744;9.162;2022-08-19T06:12:50;95977.59;;;21.63;100.00
11198;BME280;5655;48.744;9.162;2022-08-19T06:15:15;95982.28;;;21.41;100.00
11198;BME280;5655;48.744;9.162;2022-08-19T06:17:41;95984.38;;;21.37;100.00
11198;BME280;5655;48.744;9.162;2022-08-19T06:20:12;95982.28;;;21.41;100.00
11198;BME280;5655;48.744;9.162;2022-08-19T06:22:42;95975.81;;;21.25;100.00
11198;BME280;5655;48.744;9.162;2022-08-19T06:25:09;95978.00;;;21.52;100.00
11198;BME280;5655;48.744;9.162;2022-08-19T06:27:35;95982.59;;;21.43;100.00
11198;BME280;5655;48.744;9.162;2022-08-19T06:30:01;95982.03;;;21.48;100.00
11198;BME280;5655;48.744;9.162;2022-08-19T06:32:27;95976.97;;;21.59;100.00
11198;BME280;5655;48.744;9.162;2022-08-19T06:34:52;95984.25;;;21.62;100.00
11198;BME280;5655;48.744;9.162;2022-08-19T06:37:18;95992.94;;;21.48;100.00
11198;BME280;5655;48.744;9.162;2022-08-19T06:39:44;95991.28;;;21.72;100.00
11198;BME280;5655;48.744;9.162;2022-08-19T06:42:11;95988.50;;;21.85;100.00
11198;BME280;5655;48.744;9.162;2022-08-19T06:44:39;95995.19;;;21.49;100.00
11198;BME280;5655;48.744;9.162;2022-08-19T06:47:07;96004.13;;;21.50;100.00
11198;BME280;5655;48.744;9.162;2022-08-19T06:49:34;95999.41;;;21.63;100.00
11198;BME280;5655;48.744;9.162;2022-08-19T06:52:00;96013.25;;;21.34;100.00
11198;BME280;5655;48.744;9.162;2022-08-19T06:54:26;96016.41;;;21.33;100.00
11198;BME280;5655;48.744;9.162;2022-08-19T06:56:53;96015.81;;;21.16;100.00
11198;BME280;5655;48.744;9.162;2022-08-19T06:59:20;96024.59;;;21.54;100.00
11198;BME280;5655;48.744;9.162;2022-08-19T07:01:50;96025.28;;;21.46;100.00
11198;BME280;5655;48.744;9.162;2022-08-19T07:04:25;96024.81;;;21.25;100.00
11198;BME280;5655;48.744;9.162;2022-08-19T07:06:58;96022.22;;;21.56;100.00
11198;BME280;5655;48.744;9.162;2022-08-19T07:09:24;96022.25;;;21.44;100.00
11198;BME280;5655;48.744;9.162;2022-08-19T07:11:51;96026.19;;;21.43;100.00
11198;BME280;5655;48.744;9.162;2022-08-19T07:14:21;96034.75;;;21.19;100.00
11198;BME280;5655;48.744;9.162;2022-08-19T07:16:49;96036.81;;;21.50;100.00
11198;BME280;5655;48.744;9.162;2022-08-19T07:19:17;96042.19;;;21.41;100.00
11198;BME280;5655;48.744;9.162;2022-08-19T07:21:43;96042.22;;;21.28;100.00
11198;BME280;5655;48.744;9.162;2022-08-19T07:24:08;96047.75;;;21.37;100.00
11198;BME280;5655;48.744;9.162;2022-08-19T07:26:42;96044.97;;;21.50;100.00
11198;BME280;5655;48.744;9.162;2022-08-19T07:29:08;96041.38;;;21.18;100.00
11198;BME280;5655;48.744;9.162;2022-08-19T07:31:33;96043.16;;;21.12;100.00
11198;BME280;5655;48.744;9.162;2022-08-19T07:34:06;96044.09;;;21.31;100.00
11198;BME280;5655;48.744;9.162;2022-08-19T07:36:38;96046.25;;;21.23;100.00
11198;BME280;5655;48.744;9.162;2022-08-19T07:39:08;96045.63;;;21.19;100.00
11198;BME280;5655;48.744;9.162;2022-08-19T07:41:35;96040.88;;;21.45;100.00
11198;BME280;5655;48.744;9.162;2022-08-19T07:44:02;96050.81;;;21.39;100.00
11198;BME280;5655;48.744;9.162;2022-08-19T07:46:30;96042.81;;;21.45;100.00
11198;BME280;5655;48.744;9.162;2022-08-19T07:48:56;96046.78;;;21.44;100.00
11198;BME280;5655;48.744;9.162;2022-08-19T07:51:22;96049.00;;;21.23;100.00
11198;BME280;5655;48.744;9.162;2022-08-19T07:53:48;96048.53;;;21.38;100.00
11198;BME280;5655;48.744;9.162;2022-08-19T07:56:15;96049.41;;;21.35;100.00
11198;BME280;5655;48.744;9.162;2022-08-19T07:58:44;96048.00;;;21.30;100.00
11198;BME280;5655;48.744;9.162;2022-08-19T08:01:15;96051.56;;;21.40;100.00
11198;BME280;5655;48.744;9.162;2022-08-19T08:03:42;96048.28;;;21.45;100.00
11198;BME280;5655;48.744;9.162;2022-08-19T08:06:26;96051.38;;;21.34;100.00
11198;BME280;5655;48.744;9.162;2022-08-19T08:09:11;96051.41;;;21.21;100.00
11198;BME280;5655;48.744;9.162;2022-08-19T08:11:54;96044.22;;;21.49;100.00
11198;BME280;5655;48.744;9.162;2022-08-19T08:14:23;96056.25;;;21.39;100.00
11198;BME280;5655;48.744;9.162;2022-08-19T08:16:50;96055.69;;;21.66;100.00
11198;BME280;5655;48.744;9.162;2022-08-19T08:19:19;96054.88;;;21.56;100.00
11198;BME280;5655;48.744;9.162;2022-08-19T08:21:46;96063.25;;;21.62;100.00
11198;BME280;5655;48.744;9.162;2022-08-19T08:24:14;96060.41;;;21.65;100.00
11198;BME280;5655;48.744;9.162;2022-08-19T08:26:40;96061.97;;;21.54;100.00
11198;BME280;5655;48.744;9.162;2022-08-19T08:29:06;96064.38;;;21.52;100.00
11198;BME280;5655;48.744;9.162;2022-08-19T08:31:35;96068.47;;;21.35;100.00
11198;BME280;5655;48.744;9.162;2022-08-19T08:34:01;96079.66;;;21.37;100.00
11198;BME280;5655;48.744;9.162;2022-08-19T08:36:27;96086.03;;;21.21;100.00
11198;BME280;5655;48.744;9.162;2022-08-19T08:38:52;96089.53;;;20.96;100.00
11198;BME280;5655;48.744;9.162;2022-08-19T08:44:16;96078.16;;;21.36;100.00
11198;BME280;5655;48.744;9.162;2022-08-19T08:46:47;96086.97;;;21.27;100.00
11198;BME280;5655;48.744;9.162;2022-08-19T08:54:36;96077.31;;;21.26;100.00
11198;BME280;5655;48.744;9.162;2022-08-19T08:57:05;96080.09;;;21.48;100.00
11198;BME280;5655;48.744;9.162;2022-08-19T08:59:35;96086.81;;;21.56;100.00
11198;BME280;5655;48.744;9.162;2022-08-19T09:02:01;96074.09;;;21.40;100.00
11198;BME280;5655;48.744;9.162;2022-08-19T09:04:27;96096.69;;;21.15;100.00
11198;BME280;5655;48.744;9.162;2022-08-19T09:09:45;96105.41;;;21.57;100.00
11198;BME280;5655;48.744;9.162;2022-08-19T09:12:34;96101.16;;;21.69;100.00
11198;BME280;5655;48.744;9.162;2022-08-19T09:15:05;96093.88;;;21.53;100.00
11198;BME280;5655;48.744;9.162;2022-08-19T09:17:31;96078.16;;;21.70;100.00
11198;BME280;5655;48.744;9.162;2022-08-19T09:22:25;96091.09;;;21.44;100.00
11198;BME280;5655;48.744;9.162;2022-08-19T09:24:51;96097.72;;;21.56;100.00
11198;BME280;5655;48.744;9.162;2022-08-19T09:27:21;96099.19;;;21.69;100.00
11198;BME280;5655;48.744;9.162;2022-08-19T09:29:49;96101.38;;;21.62;100.00
11198;BME280;5655;48.744;9.162;2022-08-19T09:32:14;96091.66;;;21.73;100.00
11198;BME280;5655;48.744;9.162;2022-08-19T09:34:40;96080.00;;;21.73;100.00
11198;BME280;5655;48.744;9.162;2022-08-19T09:37:06;96090.47;;;21.62;100.00
11198;BME280;5655;48.744;9.162;2022-08-19T09:39:32;96078.75;;;21.87;100.00
11198;BME280;5655;48.744;9.162;2022-08-19T09:41:57;96084.06;;;21.90;100.00
11198;BME280;5655;48.744;9.162;2022-08-19T09:44:22;96083.59;;;21.92;100.00
11198;BME280;5655;48.744;9.162;2022-08-19T09:46:48;96087.75;;;21.96;100.00
11198;BME280;5655;48.744;9.162;2022-08-19T09:49:18;96085.91;;;22.15;100.00
11198;BME280;5655;48.744;9.162;2022-08-19T09:51:44;96084.22;;;22.08;100.00
11198;BME280;5655;48.744;9.162;2022-08-19T09:54:10;96089.41;;;22.15;100.00
11198;BME280;5655;48.744;9.162;2022-08-19T09:56:35;96092.00;;;22.19;100.00
11198;BME280;5655;48.744;9.162;2022-08-19T09:59:02;96102.47;;;22.21;100.00
11198;BME280;5655;48.744;9.162;2022-08-19T10:01:30;96093.72;;;22.26;100.00
11198;BME280;5655;48.744;9.162;2022-08-19T10:03:57;96090.94;;;22.16;100.00
11198;BME280;5655;48.744;9.162;2022-08-19T10:06:25;96083.31;;;22.11;100.00
11198;BME280;5655;48.744;9.162;2022-08-19T10:08:52;96083.19;;;22.15;100.00
11198;BME280;5655;48.744;9.162;2022-08-19T10:11:19;96088.09;;;22.51;100.00
11198;BME280;5655;48.744;9.162;2022-08-19T10:13:45;96086.53;;;22.41;100.00
11198;BME280;5655;48.744;9.162;2022-08-19T10:16:14;96079.59;;;22.49;100.00
11198;BME280;5655;48.744;9.162;2022-08-19T10:18:41;96078.97;;;22.45;100.00
11198;BME280;5655;48.744;9.162;2022-08-19T10:21:13;96087.19;;;22.54;100.00
11198;BME280;5655;48.744;9.162;2022-08-19T10:23:43;96076.28;;;22.54;100.00
11198;BME280;5655;48.744;9.162;2022-08-19T10:26:20;96080.59;;;22.64;100.00
11198;BME280;5655;48.744;9.162;2022-08-19T10:28:46;96079.97;;;22.60;100.00
11198;BME280;5655;48.744;9.162;2022-08-19T10:31:21;96077.94;;;22.73;100.00
11198;BME280;5655;48.744;9.162;2022-08-19T10:33:48;96077.69;;;22.89;100.00
11198;BME280;5655;48.744;9.162;2022-08-19T10:36:16;96077.94;;;22.73;100.00
11198;BME280;5655;48.744;9.162;2022-08-19T10:38:46;96079.00;;;22.54;100.00
11198;BME280;5655;48.744;9.162;2022-08-19T10:41:14;96076.94;;;22.67;100.00
11198;BME280;5655;48.744;9.162;2022-08-19T10:43:40;96063.13;;;22.92;100.00
11198;BME280;5655;48.744;9.162;2022-08-19T10:46:12;96062.22;;;22.86;100.00
11198;BME280;5655;48.744;9.162;2022-08-19T10:48:38;96071.41;;;22.49;100.00
11198;BME280;5655;48.744;9.162;2022-08-19T10:51:04;96065.84;;;22.61;100.00
11198;BME280;5655;48.744;9.162;2022-08-19T10:53:49;96065.22;;;22.88;100.00
11198;BME280;5655;48.744;9.162;2022-08-19T10:56:14;96061.59;;;22.91;100.00
11198;BME280;5655;48.744;9.162;2022-08-19T10:59:03;96063.84;;;22.53;100.00
11198;BME280;5655;48.744;9.162;2022-08-19T11:01:30;96056.44;;;22.84;100.00
11198;BME280;5655;48.744;9.162;2022-08-19T11:03:56;96051.91;;;22.90;100.00
11198;BME280;5655;48.744;9.162;2022-08-19T11:06:24;96053.47;;;23.10;100.00
11198;BME280;5655;48.744;9.162;2022-08-19T11:08:53;96050.13;;;23.15;100.00
11198;BME280;5655;48.744;9.162;2022-08-19T11:11:20;96046.94;;;23.07;100.00
11198;BME280;5655;48.744;9.162;2022-08-19T11:13:47;96044.47;;;23.00;100.00
11198;BME280;5655;48.744;9.162;2022-08-19T11:16:17;96046.03;;;23.10;100.00
11198;BME280;5655;48.744;9.162;2022-08-19T11:18:46;96042.56;;;23.19;100.00
11198;BME280;5655;48.744;9.162;2022-08-19T11:23:46;96049.28;;;23.45;100.00
11198;BME280;5655;48.744;9.162;2022-08-19T11:26:13;96036.94;;;23.22;100.00
11198;BME280;5655;48.744;9.162;2022-08-19T11:28:39;96046.53;;;23.36;100.00
11198;BME280;5655;48.744;9.162;2022-08-19T11:31:12;96046.84;;;23.38;100.00
11198;BME280;5655;48.744;9.162;2022-08-19T11:33:39;96037.00;;;23.59;100.00
11198;BME280;5655;48.744;9.162;2022-08-19T11:36:04;96036.25;;;23.67;100.00
11198;BME280;5655;48.744;9.162;2022-08-19T11:38:30;96035.00;;;23.77;100.00
11198;BME280;5655;48.744;9.162;2022-08-19T11:40:57;96038.22;;;23.76;100.00
11198;BME280;5655;48.744;9.162;2022-08-19T11:43:23;96026.22;;;23.64;100.00
11198;BME280;5655;48.744;9.162;2022-08-19T11:45:49;96032.91;;;23.54;100.00
11198;BME280;5655;48.744;9.162;2022-08-19T11:48:15;96034.88;;;23.81;100.00
11198;BME280;5655;48.744;9.162;2022-08-19T11:50:40;96030.00;;;23.76;100.00
11198;BME280;5655;48.744;9.162;2022-08-19T11:53:08;96033.16;;;24.02;100.00
11198;BME280;5655;48.744;9.162;2022-08-19T11:55:37;96035.31;;;23.98;100.00
11198;BME280;5655;48.744;9.162;2022-08-19T11:58:04;96039.25;;;23.96;100.00
11198;BME280;5655;48.744;9.162;2022-08-19T12:00:32;96020.09;;;24.06;100.00
11198;BME280;5655;48.744;9.162;2022-08-19T12:02:58;96010.94;;;24.27;100.00
11198;BME280;5655;48.744;9.162;2022-08-19T12:05:23;96010.34;;;24.14;100.00
11198;BME280;5655;48.744;9.162;2022-08-19T12:07:49;96004.69;;;24.35;100.00
11198;BME280;5655;48.744;9.162;2022-08-19T12:10:14;96015.66;;;24.26;100.00
11198;BME280;5655;48.744;9.162;2022-08-19T12:12:40;96014.84;;;24.44;100.00
11198;BME280;5655;48.744;9.162;2022-08-19T12:15:08;96003.06;;;24.29;100.00
11198;BME280;5655;48.744;9.162;2022-08-19T12:17:34;96003.28;;;24.49;100.00
11198;BME280;5655;48.744;9.162;2022-08-19T12:20:00;96016.03;;;24.52;100.00
11198;BME280;5655;48.744;9.162;2022-08-19T12:22:25;96014.88;;;24.35;100.00
11198;BME280;5655;48.744;9.162;2022-08-19T12:24:50;96002.69;;;24.45;100.00
11198;BME280;5655;48.744;9.162;2022-08-19T12:27:18;95992.56;;;24.60;100.00
11198;BME280;5655;48.744;9.162;2022-08-19T12:29:43;96003.66;;;24.24;100.00
11198;BME280;5655;48.744;9.162;2022-08-19T12:32:09;95988.63;;;24.28;100.00
11198;BME280;5655;48.744;9.162;2022-08-19T12:34:34;95996.53;;;24.59;100.00
11198;BME280;5655;48.744;9.162;2022-08-19T12:37:03;95998.97;;;24.57;100.00
11198;BME280;5655;48.744;9.162;2022-08-19T12:39:29;96005.38;;;24.54;100.00
11198;BME280;5655;48.744;9.162;2022-08-19T12:41:56;96009.34;;;24.53;100.00
11198;BME280;5655;48.744;9.162;2022-08-19T12:44:23;96006.97;;;24.37;100.00
11198;BME280;5655;48.744;9.162;2022-08-19T12:46:48;96030.41;;;24.29;100.00
11198;BME280;5655;48.744;9.162;2022-08-19T12:49:14;96058.09;;;23.76;100.00
11198;BME280;5655;48.744;9.162;2022-08-19T12:51:41;96078.75;;;23.68;100.00
11198;BME280;5655;48.744;9.162;2022-08-19T12:54:06;96080.88;;;23.55;100.00
11198;BME280;5655;48.744;9.162;2022-08-19T12:56:32;96089.91;;;23.25;100.00
11198;BME280;5655;48.744;9.162;2022-08-19T12:59:01;96089.78;;;23.37;100.00
11198;BME280;5655;48.744;9.162;2022-08-19T13:01:27;96094.25;;;23.13;100.00
11198;BME280;5655;48.744;9.162;2022-08-19T13:03:58;96093.72;;;23.36;100.00
11198;BME280;5655;48.744;9.162;2022-08-19T13:06:24;96100.00;;;23.46;100.00
11198;BME280;5655;48.744;9.162;2022-08-19T13:08:50;96117.53;;;23.36;100.00
11198;BME280;5655;48.744;9.162;2022-08-19T13:11:18;96118.09;;;23.22;100.00
11198;BME280;5655;48.744;9.162;2022-08-19T13:13:45;96148.75;;;23.17;100.00
11198;BME280;5655;48.744;9.162;2022-08-19T13:16:12;96153.84;;;23.05;100.00
11198;BME280;5655;48.744;9.162;2022-08-19T13:18:39;96134.78;;;23.15;100.00